• Season
  • Course
  • BIB Lookup
 
Enterprise, AL Enterprise, AL April 23, 2016

Overall

163 Runners
503.3 Miles Run
93 Hours Running

1 Mile

1 Runners
1 Miles Run
2 Hours Running
02:59:11 Avgerage Time
41 Average Age

5K

162 Runners
502.3 Miles Run
91 Hours Running
00:34:01 Avgerage Time
34 Average Age
Overall Place Gender Place Age Place BIB # Name Age Division Time
1 1 1 6732 Donny Barnes M20-24 00:17:02
2 2 1 9951 Gabe Henneberger M10-14 00:19:09
3 3 2 6849 Joshua Sproul M10-14 00:19:10
4 4 1 9974 Landon Pilcher M15-19 00:20:15
5 5 2 9967 Michael Warner M15-19 00:20:27
6 6 3 6858 Henry Templin M10-14 00:20:30
7 1 1 6958 Katie Enos F25-29 00:20:49
8 7 1 6848 James Sproul M40-44 00:21:12
9 8 1 9962 Shian Huggler M30-34 00:21:23
10 9 1 6971 Garrett Keller M25-29 00:21:38
11 10 1 6876 Jay Wrenn M50-54 00:21:53
12 11 2 9973 Hbjoh Johns M50-54 00:22:01
13 2 1 9964 Eden Keene F30-34 00:22:14
14 3 1 9971 Natalie Warner F10-14 00:22:14
15 4 2 6835 Kayleigh Riordan F10-14 00:22:19
16 12 3 9968 Jonathan Warner M15-19 00:22:48
17 13 4 9932 Liam McFadden M15-19 00:22:53
18 14 4 9930 Colin McFadden M10-14 00:23:05
19 15 5 9959 Tyler Rathburn M10-14 00:23:19
20 16 1 9957 Dave Durbin M55-59 00:23:20
21 5 3 6875 Sarah Winekoff F10-14 00:23:21
22 17 5 6844 Ethan Smith M15-19 00:23:32
23 18 2 9953 Erik Galindo M25-29 00:23:36
24 19 2 9947 Joe Sherwin M40-44 00:23:37
25 6 1 9960 Kimberly Floyd F35-39 00:23:38
26 20 1 9938 Patrick Rowe M35-39 00:23:44
27 21 3 6868 Randolph Welch M50-54 00:23:52
28 22 3 9965 TomTom Warner M40-44 00:24:20
29 23 1 6861 Adam Trypuc M45-49 00:24:36
30 24 2 6840 George Shreffler M35-39 00:24:38
31 25 6 6834 Iain Riordan M10-14 00:24:58
32 7 2 9954 Jennifer Churchill F25-29 00:25:05
33 8 4 9950 Mirna Thompson F10-14 00:25:07
34 9 2 9924 Jaylee Brendel F30-34 00:25:08
35 10 2 6850 Tracy Spruill F35-39 00:25:08
36 11 5 9969 Annabelle Warner F10-14 00:25:22
37 26 3 6743 Carlos Calle M25-29 00:25:23
38 12 3 6956 Adrianna Eaton F25-29 00:25:23
39 27 2 6965 George Howland M55-59 00:25:30
40 13 4 6739 Elizabeth Bynum F25-29 00:25:31
41 14 1 6821 Christie Parker F40-44 00:25:33
42 15 1 9929 Nina Korges F55-59 00:26:01
43 28 4 9952 Ricardo Farias M25-29 00:26:13
44 29 1 9981 Donny Bowling M60-64 00:26:20
45 30 4 6837 Dewayne Scott M40-44 00:26:42
46 16 1 6967 Taylor Jackson F15-19 00:26:48
47 31 2 6966 Scott Jackson M45-49 00:26:49
48 32 6 6827 gunner pierce M15-19 00:27:35
49 33 1 9963 Dawson Peacock M0-9 00:27:49
50 17 1 6961 Alexandra Hastings F20-24 00:27:52
51 34 4 6823 James Pennington M50-54 00:27:58
52 18 3 9982 Katie Barrentine F30-34 00:27:58
53 35 5 9942 Wayne Lindsey M40-44 00:28:05
54 36 5 6819 Jordan Money M25-29 00:28:06
55 19 2 6829 Courtney Pruitt F20-24 00:28:13
56 20 1 9978 Cassie Logan F50-54 00:28:18
57 21 3 6964 Stacey Hogan F35-39 00:28:27
58 22 1 6953 Suzanne den Besten F45-49 00:28:32
59 23 2 6976 Chan Lamb F40-44 00:28:52
60 37 5 9976 Lowell Green M50-54 00:28:56
61 24 3 6954 Lauralee Dillon F40-44 00:28:57
62 38 7 9931 Keegan McFadden M10-14 00:29:04
63 39 3 9933 Michael McFadden M45-49 00:29:05
64 40 2 6746 Adam Carter M30-34 00:29:06
65 25 4 6862 Jaime Trypuc F35-39 00:29:45
66 26 5 6975 Sara Krystyn F25-29 00:29:46
67 41 4 9941 William Hensley M45-49 00:29:52
68 42 8 9972 Nathan Warner M10-14 00:30:08
69 43 7 6830 Tyler Rackley M15-19 00:30:19
70 27 2 6822 Makenzie Parker F15-19 00:30:19
71 28 4 6737 Heather Bracewell F30-34 00:30:24
72 29 2 6960 Amy Graf F45-49 00:30:27
73 30 6 9925 Brianna Brooks F10-14 00:30:32
74 31 3 6731 Kathryn Bailey F20-24 00:30:43
75 32 4 6815 Abbey McConnell F20-24 00:30:43
76 33 4 6867 HEATHER WEIGNER F40-44 00:30:57
77 34 6 6818 Anna Money F25-29 00:31:30
78 35 5 9935 DeAnna Miller F35-39 00:31:34
79 36 7 6979 Mone' Lewis F10-14 00:31:38
80 44 5 6978 Anthony Lewis M45-49 00:31:39
81 37 3 6847 Melanie Sneed F45-49 00:31:46
82 45 6 9948 Jesse Webster M25-29 00:31:47
83 46 3 9956 Terry Bass M55-59 00:32:05
84 47 6 6963 Les Hogan M40-44 00:32:16
85 48 6 6845 Phillip Smith M45-49 00:32:16
86 49 6 6859 Roy Templin M50-54 00:32:37
87 50 3 6741 Mason Bynum M30-34 00:32:49
88 38 5 6977 Christie Langford F30-34 00:32:52
89 39 7 6968 Emily Jenkins F25-29 00:33:06
90 40 5 6842 Chelsea Smith F20-24 00:33:19
91 51 2 9939 Ron White M60-64 00:33:40
92 52 4 6870 Jason White M30-34 00:33:40
93 41 1 6857 Samantha Sykes F0-9 00:33:46
94 53 3 6856 Brian Sykes M35-39 00:33:47
95 42 6 9984 Penny Turner F30-34 00:34:32
96 54 7 6873 Jason Winekoff M40-44 00:34:33
97 43 4 9943 Victoria Lindsey F45-49 00:34:41
98 44 8 6736 Sophia Boose F25-29 00:35:18
99 55 7 6738 Anthony Britt M45-49 00:35:37
100 45 1 6872 Frances Williams F60-64 00:35:50
101 46 6 6959 Meagan Goedert F20-24 00:36:08
102 47 7 6843 Emily Smith F20-24 00:36:19
103 48 5 9961 Rochelle Gossen F45-49 00:36:20
104 49 6 9934 Shery McFadden F45-49 00:36:49
105 56 8 6828 Rob Pierce M45-49 00:36:55
106 57 1 9983 Jesse Hunt M70-74 00:37:14
107 50 5 6852 Paula Stewart F40-44 00:37:19
108 58 3 6734 Dwight Begly M60-64 00:37:30
109 51 6 6866 Barbara Wade F35-39 00:37:55
110 52 7 6744 Lori Carroll F45-49 00:38:19
111 53 2 9958 Debra Thomson F55-59 00:39:02
112 54 2 6735 Jolene Begly F60-64 00:39:11
113 55 7 6754 Kim Cook F30-34 00:39:28
114 56 8 6753 Kaylee Cook F10-14 00:39:29
115 57 8 6740 Laura-Ashley Bynum F30-34 00:39:41
116 58 7 6814 Erin McCarty F35-39 00:39:41
117 59 8 6817 Amanda Money F20-24 00:39:42
118 60 8 6854 Alicia Storey F35-39 00:39:44
119 61 9 9937 Cindy Riley F35-39 00:39:47
120 62 2 9955 Patsy Holland F50-54 00:39:53
121 63 9 9977 Ryanne Watson F25-29 00:39:53
122 64 9 6831 Angela Redden F30-34 00:40:18
123 59 4 6832 Terence Redden M35-39 00:40:19
124 65 10 6747 Cecilia Ciccarelli F30-34 00:40:47
125 66 10 6836 Sarah Rogers F25-29 00:40:51
126 67 11 9979 Katie Blaise F30-34 00:42:46
127 68 11 9927 Alee Folds F25-29 00:43:13
128 69 8 6846 Sherry Smith F45-49 00:43:15
129 60 9 6855 Bryson Storey M10-14 00:43:58
130 61 10 6748 Andrew Close M10-14 00:44:17
131 70 6 6969 Yvonne Johnson F40-44 00:45:05
132 71 9 9970 Joan Warner F10-14 00:45:11
133 72 7 9966 Teresa Warner F40-44 00:45:14
134 73 2 6826 Taylor Pesamoska F0-9 00:45:56
135 62 5 6825 Mike Pesamoska M30-34 00:45:56
136 74 10 6957 Amy Eddins F35-39 00:46:27
137 75 12 6955 Amanda Dobbs F25-29 00:46:28
138 76 10 6824 Courtney Pesamoska F10-14 00:46:40
139 63 11 6841 Jason Simpson M10-14 00:46:45
140 77 9 6752 Angie Coleman F45-49 00:46:51
141 78 13 6972 Amanda Kemp F25-29 00:47:36
142 64 4 6745 Mike Carroll M55-59 00:47:37
143 65 7 6974 Mark Krystyn M25-29 00:47:37
144 66 6 6973 Justin Kemp M30-34 00:47:39
145 79 3 6750 Kayla Close F0-9 00:47:57
146 67 5 6751 Matthew Close M35-39 00:47:58
147 80 12 6749 Jo Close F30-34 00:47:59
148 81 8 6733 Dawnmarie Bean F40-44 00:48:18
149 82 10 6871 Carrie Williams F45-49 00:48:47
150 83 9 6874 Jennifer Winekoff F40-44 00:48:52
151 84 10 9975 Judy Thomas F40-44 00:49:27
152 85 3 9940 Cecilia Woodham F50-54 00:49:49
153 68 9 6851 Dean Stansell M45-49 00:49:49
154 86 11 6838 Tamara Scott F40-44 00:51:46
155 69 10 9944 Randy Hancock M45-49 00:52:44
156 87 11 9945 Brooke Hancock F45-49 00:52:46
157 88 12 6730 Mona Antley F45-49 00:54:56
158 89 3 6951 Debi Curtis F55-59 00:54:56
159 90 13 6742 Michaela Cadden F30-34 00:54:58
160 91 14 9985 McKenzi Grantham F30-34 00:55:17
161 92 4 6820 Susan Newsom F50-54 00:55:17
162 93 14 9946 Kathryn Carter F25-29 00:57:27